sensor_id;sensor_type;location;lat;lon;timestamp;pressure;altitude;pressure_sealevel;temperature;humidity
40570;BME280;26270;34.428;-119.710;2022-12-24T00:01:14;101615.10;;;18.34;60.31
40570;BME280;26270;34.428;-119.710;2022-12-24T00:03:43;101610.57;;;18.39;60.64
40570;BME280;26270;34.428;-119.710;2022-12-24T00:06:17;101609.46;;;18.12;60.43
40570;BME280;26270;34.428;-119.710;2022-12-24T00:08:46;101613.01;;;18.23;59.83
40570;BME280;26270;34.428;-119.710;2022-12-24T00:11:14;101616.21;;;18.19;59.97
40570;BME280;26270;34.428;-119.710;2022-12-24T00:13:42;101626.49;;;18.12;60.20
40570;BME280;26270;34.428;-119.710;2022-12-24T00:16:10;101630.67;;;18.16;59.93
40570;BME280;26270;34.428;-119.710;2022-12-24T00:18:38;101629.61;;;18.21;60.04
40570;BME280;26270;34.428;-119.710;2022-12-24T00:21:07;101632.05;;;18.01;60.69
40570;BME280;26270;34.428;-119.710;2022-12-24T00:23:35;101634.41;;;18.13;61.19
40570;BME280;26270;34.428;-119.710;2022-12-24T00:26:03;101633.53;;;17.96;61.06
40570;BME280;26270;34.428;-119.710;2022-12-24T00:28:32;101633.99;;;18.14;61.17
40570;BME280;26270;34.428;-119.710;2022-12-24T00:31:06;101641.56;;;17.94;61.29
40570;BME280;26270;34.428;-119.710;2022-12-24T00:33:34;101640.39;;;17.54;62.46
40570;BME280;26270;34.428;-119.710;2022-12-24T00:36:04;101635.31;;;17.90;61.90
40570;BME280;26270;34.428;-119.710;2022-12-24T00:38:32;101638.78;;;17.72;61.70
40570;BME280;26270;34.428;-119.710;2022-12-24T00:41:02;101637.26;;;17.78;62.15
40570;BME280;26270;34.428;-119.710;2022-12-24T00:43:31;101636.87;;;17.63;62.21
40570;BME280;26270;34.428;-119.710;2022-12-24T00:45:59;101642.06;;;17.67;62.75
40570;BME280;26270;34.428;-119.710;2022-12-24T00:48:28;101645.23;;;17.35;63.64
40570;BME280;26270;34.428;-119.710;2022-12-24T00:50:56;101643.22;;;17.48;63.51
40570;BME280;26270;34.428;-119.710;2022-12-24T00:53:24;101641.94;;;17.42;63.52
40570;BME280;26270;34.428;-119.710;2022-12-24T00:55:53;101641.19;;;17.35;63.65
40570;BME280;26270;34.428;-119.710;2022-12-24T00:58:21;101641.49;;;17.25;63.41
40570;BME280;26270;34.428;-119.710;2022-12-24T01:00:49;101647.47;;;17.34;63.74
40570;BME280;26270;34.428;-119.710;2022-12-24T01:03:18;101654.48;;;17.18;64.50
40570;BME280;26270;34.428;-119.710;2022-12-24T01:05:46;101656.91;;;17.30;63.83
40570;BME280;26270;34.428;-119.710;2022-12-24T01:08:14;101659.05;;;17.02;65.00
40570;BME280;26270;34.428;-119.710;2022-12-24T01:10:42;101659.30;;;17.01;65.51
40570;BME280;26270;34.428;-119.710;2022-12-24T01:13:10;101662.94;;;17.01;66.47
40570;BME280;26270;34.428;-119.710;2022-12-24T01:15:38;101665.62;;;16.88;66.02
40570;BME280;26270;34.428;-119.710;2022-12-24T01:18:07;101667.73;;;16.96;66.77
40570;BME280;26270;34.428;-119.710;2022-12-24T01:20:35;101674.55;;;16.86;66.49
40570;BME280;26270;34.428;-119.710;2022-12-24T01:23:03;101675.98;;;16.80;66.70
40570;BME280;26270;34.428;-119.710;2022-12-24T01:25:31;101673.66;;;16.66;67.17
40570;BME280;26270;34.428;-119.710;2022-12-24T01:28:00;101676.93;;;16.28;68.80
40570;BME280;26270;34.428;-119.710;2022-12-24T01:30:28;101675.06;;;16.48;67.86
40570;BME280;26270;34.428;-119.710;2022-12-24T01:32:56;101671.91;;;16.50;68.07
40570;BME280;26270;34.428;-119.710;2022-12-24T01:35:24;101672.88;;;16.45;67.93
40570;BME280;26270;34.428;-119.710;2022-12-24T01:37:52;101672.24;;;16.33;68.25
40570;BME280;26270;34.428;-119.710;2022-12-24T01:40:21;101673.83;;;16.55;67.58
40570;BME280;26270;34.428;-119.710;2022-12-24T01:42:49;101680.07;;;16.39;68.58
40570;BME280;26270;34.428;-119.710;2022-12-24T01:45:54;101680.83;;;16.37;68.43
40570;BME280;26270;34.428;-119.710;2022-12-24T01:48:32;101682.43;;;16.20;68.43
40570;BME280;26270;34.428;-119.710;2022-12-24T01:51:05;101686.32;;;16.32;69.10
40570;BME280;26270;34.428;-119.710;2022-12-24T01:53:37;101686.54;;;16.23;68.71
40570;BME280;26270;34.428;-119.710;2022-12-24T01:56:07;101689.56;;;16.28;69.09
40570;BME280;26270;34.428;-119.710;2022-12-24T01:58:40;101696.35;;;16.13;69.49
40570;BME280;26270;34.428;-119.710;2022-12-24T02:01:10;101704.71;;;16.13;68.98
40570;BME280;26270;34.428;-119.710;2022-12-24T02:03:38;101706.42;;;16.15;68.80
40570;BME280;26270;34.428;-119.710;2022-12-24T02:06:07;101713.85;;;16.20;68.86
40570;BME280;26270;34.428;-119.710;2022-12-24T02:08:36;101716.20;;;15.99;70.01
40570;BME280;26270;34.428;-119.710;2022-12-24T02:11:09;101721.86;;;15.78;70.34
40570;BME280;26270;34.428;-119.710;2022-12-24T02:13:38;101721.28;;;15.66;70.30
40570;BME280;26270;34.428;-119.710;2022-12-24T02:16:13;101723.06;;;15.76;70.76
40570;BME280;26270;34.428;-119.710;2022-12-24T02:18:50;101721.50;;;15.88;70.21
40570;BME280;26270;34.428;-119.710;2022-12-24T02:21:44;101726.00;;;15.67;70.46
40570;BME280;26270;34.428;-119.710;2022-12-24T02:26:35;101723.04;;;15.74;70.49
40570;BME280;26270;34.428;-119.710;2022-12-24T02:29:26;101735.13;;;15.68;70.26
40570;BME280;26270;34.428;-119.710;2022-12-24T02:32:01;101738.00;;;15.66;70.19
40570;BME280;26270;34.428;-119.710;2022-12-24T02:34:37;101745.54;;;15.85;69.44
40570;BME280;26270;34.428;-119.710;2022-12-24T02:37:11;101742.92;;;15.69;69.79
40570;BME280;26270;34.428;-119.710;2022-12-24T02:39:47;101743.02;;;15.50;69.90
40570;BME280;26270;34.428;-119.710;2022-12-24T02:42:23;101748.16;;;15.49;70.53
40570;BME280;26270;34.428;-119.710;2022-12-24T02:44:54;101749.77;;;15.56;69.83
40570;BME280;26270;34.428;-119.710;2022-12-24T02:47:26;101753.97;;;15.40;70.44
40570;BME280;26270;34.428;-119.710;2022-12-24T02:49:55;101756.65;;;15.55;69.66
40570;BME280;26270;34.428;-119.710;2022-12-24T02:52:33;101766.77;;;15.48;69.76
40570;BME280;26270;34.428;-119.710;2022-12-24T02:55:07;101769.40;;;15.44;69.71
40570;BME280;26270;34.428;-119.710;2022-12-24T02:57:47;101769.41;;;15.31;70.09
40570;BME280;26270;34.428;-119.710;2022-12-24T03:00:20;101766.97;;;15.11;70.77
40570;BME280;26270;34.428;-119.710;2022-12-24T03:03:14;101776.70;;;15.18;70.84
40570;BME280;26270;34.428;-119.710;2022-12-24T03:05:48;101773.58;;;15.41;70.38
40570;BME280;26270;34.428;-119.710;2022-12-24T03:08:26;101779.33;;;15.26;70.49
40570;BME280;26270;34.428;-119.710;2022-12-24T03:10:59;101779.40;;;15.40;70.26
40570;BME280;26270;34.428;-119.710;2022-12-24T03:13:29;101779.75;;;15.30;70.75
40570;BME280;26270;34.428;-119.710;2022-12-24T03:15:58;101777.91;;;15.16;70.41
40570;BME280;26270;34.428;-119.710;2022-12-24T03:18:27;101779.10;;;15.15;71.81
40570;BME280;26270;34.428;-119.710;2022-12-24T03:21:02;101784.77;;;15.27;70.55
40570;BME280;26270;34.428;-119.710;2022-12-24T03:23:33;101786.49;;;15.19;70.57
40570;BME280;26270;34.428;-119.710;2022-12-24T03:26:06;101788.67;;;15.15;71.58
40570;BME280;26270;34.428;-119.710;2022-12-24T03:28:38;101787.51;;;15.13;72.03
40570;BME280;26270;34.428;-119.710;2022-12-24T03:31:08;101786.98;;;14.98;71.12
40570;BME280;26270;34.428;-119.710;2022-12-24T03:33:37;101790.30;;;15.07;71.18
40570;BME280;26270;34.428;-119.710;2022-12-24T03:36:07;101790.84;;;15.08;71.41
40570;BME280;26270;34.428;-119.710;2022-12-24T03:38:36;101794.00;;;14.95;72.00
40570;BME280;26270;34.428;-119.710;2022-12-24T03:41:05;101800.61;;;14.83;72.73
40570;BME280;26270;34.428;-119.710;2022-12-24T03:43:33;101803.28;;;14.80;73.01
40570;BME280;26270;34.428;-119.710;2022-12-24T03:46:05;101799.50;;;14.83;72.49
40570;BME280;26270;34.428;-119.710;2022-12-24T03:48:34;101798.79;;;14.96;72.64
40570;BME280;26270;34.428;-119.710;2022-12-24T03:51:03;101805.66;;;15.04;72.73
40570;BME280;26270;34.428;-119.710;2022-12-24T03:53:32;101809.06;;;15.10;71.92
40570;BME280;26270;34.428;-119.710;2022-12-24T03:56:00;101816.77;;;15.11;71.83
40570;BME280;26270;34.428;-119.710;2022-12-24T03:58:27;101817.99;;;15.01;72.32
40570;BME280;26270;34.428;-119.710;2022-12-24T04:00:56;101815.81;;;14.85;73.08
40570;BME280;26270;34.428;-119.710;2022-12-24T04:03:25;101822.38;;;15.02;72.59
40570;BME280;26270;34.428;-119.710;2022-12-24T04:06:01;101822.40;;;14.82;72.53
40570;BME280;26270;34.428;-119.710;2022-12-24T04:08:29;101825.82;;;14.91;72.88
40570;BME280;26270;34.428;-119.710;2022-12-24T04:10:58;101829.80;;;14.73;73.66
40570;BME280;26270;34.428;-119.710;2022-12-24T04:13:26;101830.37;;;14.44;73.59
40570;BME280;26270;34.428;-119.710;2022-12-24T04:15:59;101830.83;;;14.44;73.96
40570;BME280;26270;34.428;-119.710;2022-12-24T04:18:28;101833.60;;;14.49;74.17
40570;BME280;26270;34.428;-119.710;2022-12-24T04:20:56;101840.34;;;14.47;73.56
40570;BME280;26270;34.428;-119.710;2022-12-24T04:23:25;101839.03;;;14.56;73.02
40570;BME280;26270;34.428;-119.710;2022-12-24T04:25:53;101840.21;;;14.53;72.76
40570;BME280;26270;34.428;-119.710;2022-12-24T04:28:21;101841.33;;;14.49;72.55
40570;BME280;26270;34.428;-119.710;2022-12-24T04:30:49;101845.59;;;14.53;72.20
40570;BME280;26270;34.428;-119.710;2022-12-24T04:33:18;101845.61;;;14.41;72.94
40570;BME280;26270;34.428;-119.710;2022-12-24T04:35:46;101843.51;;;13.84;74.14
40570;BME280;26270;34.428;-119.710;2022-12-24T04:38:14;101842.21;;;14.12;74.38
40570;BME280;26270;34.428;-119.710;2022-12-24T04:40:42;101844.40;;;14.11;74.23
40570;BME280;26270;34.428;-119.710;2022-12-24T04:43:11;101844.29;;;14.36;73.35
40570;BME280;26270;34.428;-119.710;2022-12-24T04:45:39;101849.26;;;14.21;73.12
40570;BME280;26270;34.428;-119.710;2022-12-24T04:48:06;101843.80;;;13.96;73.58
40570;BME280;26270;34.428;-119.710;2022-12-24T04:50:34;101843.03;;;14.15;72.92
40570;BME280;26270;34.428;-119.710;2022-12-24T04:53:02;101843.92;;;14.14;72.37
40570;BME280;26270;34.428;-119.710;2022-12-24T04:55:30;101847.35;;;14.14;72.11
40570;BME280;26270;34.428;-119.710;2022-12-24T04:57:59;101853.69;;;14.03;72.15
40570;BME280;26270;34.428;-119.710;2022-12-24T05:03:20;101853.42;;;13.99;71.81
40570;BME280;26270;34.428;-119.710;2022-12-24T05:05:48;101858.95;;;14.19;71.67
40570;BME280;26270;34.428;-119.710;2022-12-24T05:08:17;101860.87;;;13.70;72.37
40570;BME280;26270;34.428;-119.710;2022-12-24T05:10:54;101867.76;;;13.52;72.23
40570;BME280;26270;34.428;-119.710;2022-12-24T05:13:22;101865.81;;;13.73;71.96
40570;BME280;26270;34.428;-119.710;2022-12-24T05:15:52;101871.70;;;13.76;71.72
40570;BME280;26270;34.428;-119.710;2022-12-24T05:18:20;101871.76;;;13.71;71.55
40570;BME280;26270;34.428;-119.710;2022-12-24T05:20:49;101873.74;;;13.80;70.88
40570;BME280;26270;34.428;-119.710;2022-12-24T05:23:19;101876.49;;;13.63;71.30
40570;BME280;26270;34.428;-119.710;2022-12-24T05:25:47;101882.51;;;13.65;71.32
40570;BME280;26270;34.428;-119.710;2022-12-24T05:28:16;101881.46;;;13.74;71.48
40570;BME280;26270;34.428;-119.710;2022-12-24T05:30:44;101880.02;;;13.63;71.74
40570;BME280;26270;34.428;-119.710;2022-12-24T05:33:12;101882.06;;;13.70;71.92
40570;BME280;26270;34.428;-119.710;2022-12-24T05:35:40;101883.07;;;13.68;71.35
40570;BME280;26270;34.428;-119.710;2022-12-24T05:38:09;101887.50;;;13.72;71.62
40570;BME280;26270;34.428;-119.710;2022-12-24T05:40:37;101884.36;;;13.48;72.50
40570;BME280;26270;34.428;-119.710;2022-12-24T05:43:05;101879.45;;;13.67;71.70
40570;BME280;26270;34.428;-119.710;2022-12-24T05:45:33;101877.49;;;13.40;72.49
40570;BME280;26270;34.428;-119.710;2022-12-24T05:48:01;101879.49;;;13.35;72.60
40570;BME280;26270;34.428;-119.710;2022-12-24T05:50:29;101880.90;;;13.52;72.68
40570;BME280;26270;34.428;-119.710;2022-12-24T05:52:58;101881.93;;;13.51;72.27
40570;BME280;26270;34.428;-119.710;2022-12-24T05:55:26;101887.58;;;13.66;72.15
40570;BME280;26270;34.428;-119.710;2022-12-24T05:57:54;101885.20;;;13.62;72.26
40570;BME280;26270;34.428;-119.710;2022-12-24T06:00:22;101887.98;;;13.40;73.11
40570;BME280;26270;34.428;-119.710;2022-12-24T06:02:51;101886.53;;;13.54;72.66
40570;BME280;26270;34.428;-119.710;2022-12-24T06:05:19;101884.72;;;13.52;72.60
40570;BME280;26270;34.428;-119.710;2022-12-24T06:07:47;101888.59;;;13.44;72.70
40570;BME280;26270;34.428;-119.710;2022-12-24T06:10:15;101888.68;;;13.34;72.36
40570;BME280;26270;34.428;-119.710;2022-12-24T06:12:43;101885.64;;;13.37;72.45
40570;BME280;26270;34.428;-119.710;2022-12-24T06:15:11;101882.87;;;13.56;72.16
40570;BME280;26270;34.428;-119.710;2022-12-24T06:17:40;101879.16;;;13.34;72.45
40570;BME280;26270;34.428;-119.710;2022-12-24T06:20:09;101886.34;;;13.44;71.82
40570;BME280;26270;34.428;-119.710;2022-12-24T06:22:37;101883.94;;;13.41;72.11
40570;BME280;26270;34.428;-119.710;2022-12-24T06:25:06;101880.92;;;13.42;72.00
40570;BME280;26270;34.428;-119.710;2022-12-24T06:27:34;101880.09;;;13.32;72.31
40570;BME280;26270;34.428;-119.710;2022-12-24T06:30:02;101884.08;;;13.35;72.20
40570;BME280;26270;34.428;-119.710;2022-12-24T06:32:31;101879.43;;;13.30;72.27
40570;BME280;26270;34.428;-119.710;2022-12-24T06:34:59;101878.46;;;13.27;72.28
40570;BME280;26270;34.428;-119.710;2022-12-24T06:37:27;101877.43;;;13.18;73.15
40570;BME280;26270;34.428;-119.710;2022-12-24T06:39:55;101870.67;;;13.23;72.56
40570;BME280;26270;34.428;-119.710;2022-12-24T06:42:23;101867.55;;;13.14;72.37
40570;BME280;26270;34.428;-119.710;2022-12-24T06:44:52;101870.47;;;13.23;72.16
40570;BME280;26270;34.428;-119.710;2022-12-24T06:47:20;101870.97;;;13.14;72.49
40570;BME280;26270;34.428;-119.710;2022-12-24T06:49:48;101871.50;;;13.19;72.60
40570;BME280;26270;34.428;-119.710;2022-12-24T06:52:17;101874.74;;;13.28;72.36
40570;BME280;26270;34.428;-119.710;2022-12-24T06:54:44;101873.95;;;13.30;71.83
40570;BME280;26270;34.428;-119.710;2022-12-24T06:57:13;101874.45;;;13.09;72.78
40570;BME280;26270;34.428;-119.710;2022-12-24T06:59:41;101873.38;;;13.07;72.79
40570;BME280;26270;34.428;-119.710;2022-12-24T07:02:09;101868.52;;;13.04;72.97
40570;BME280;26270;34.428;-119.710;2022-12-24T07:04:38;101867.03;;;12.87;73.47
40570;BME280;26270;34.428;-119.710;2022-12-24T07:07:06;101866.57;;;13.21;73.64
40570;BME280;26270;34.428;-119.710;2022-12-24T07:09:34;101862.52;;;12.81;74.06
40570;BME280;26270;34.428;-119.710;2022-12-24T07:12:02;101862.45;;;13.07;73.09
40570;BME280;26270;34.428;-119.710;2022-12-24T07:14:31;101864.31;;;13.14;72.85
40570;BME280;26270;34.428;-119.710;2022-12-24T07:17:00;101857.94;;;13.01;73.11
40570;BME280;26270;34.428;-119.710;2022-12-24T07:19:28;101859.96;;;13.21;71.95
40570;BME280;26270;34.428;-119.710;2022-12-24T07:21:57;101864.94;;;13.10;71.87
40570;BME280;26270;34.428;-119.710;2022-12-24T07:24:25;101860.28;;;13.09;72.13
40570;BME280;26270;34.428;-119.710;2022-12-24T07:26:53;101859.47;;;12.88;71.98
40570;BME280;26270;34.428;-119.710;2022-12-24T07:29:21;101860.39;;;12.99;72.04
40570;BME280;26270;34.428;-119.710;2022-12-24T07:31:49;101862.04;;;13.13;71.17
40570;BME280;26270;34.428;-119.710;2022-12-24T07:34:17;101862.78;;;12.97;71.47
40570;BME280;26270;34.428;-119.710;2022-12-24T07:36:46;101864.97;;;12.91;71.58
40570;BME280;26270;34.428;-119.710;2022-12-24T07:39:14;101868.18;;;13.07;71.60
40570;BME280;26270;34.428;-119.710;2022-12-24T07:41:43;101864.13;;;13.06;71.73
40570;BME280;26270;34.428;-119.710;2022-12-24T07:44:12;101857.65;;;13.05;72.03
40570;BME280;26270;34.428;-119.710;2022-12-24T07:46:40;101857.10;;;13.03;71.73
40570;BME280;26270;34.428;-119.710;2022-12-24T07:49:08;101858.60;;;12.79;72.85
40570;BME280;26270;34.428;-119.710;2022-12-24T07:51:37;101862.11;;;12.76;72.02
40570;BME280;26270;34.428;-119.710;2022-12-24T07:54:04;101858.79;;;12.88;71.78
40570;BME280;26270;34.428;-119.710;2022-12-24T07:56:33;101858.69;;;12.90;72.13
40570;BME280;26270;34.428;-119.710;2022-12-24T07:59:01;101855.67;;;12.79;71.65
40570;BME280;26270;34.428;-119.710;2022-12-24T08:01:30;101855.00;;;12.68;72.09
40570;BME280;26270;34.428;-119.710;2022-12-24T08:03:58;101850.94;;;12.56;72.58
40570;BME280;26270;34.428;-119.710;2022-12-24T08:06:26;101851.12;;;12.69;72.18
40570;BME280;26270;34.428;-119.710;2022-12-24T08:08:54;101849.70;;;12.80;71.77
40570;BME280;26270;34.428;-119.710;2022-12-24T08:11:22;101849.80;;;12.71;71.79
40570;BME280;26270;34.428;-119.710;2022-12-24T08:13:51;101845.94;;;12.77;71.44
40570;BME280;26270;34.428;-119.710;2022-12-24T08:16:19;101841.37;;;12.83;71.30
40570;BME280;26270;34.428;-119.710;2022-12-24T08:18:48;101839.01;;;12.79;71.27
40570;BME280;26270;34.428;-119.710;2022-12-24T08:21:16;101834.82;;;12.74;70.87
40570;BME280;26270;34.428;-119.710;2022-12-24T08:23:46;101831.35;;;12.85;69.73
40570;BME280;26270;34.428;-119.710;2022-12-24T08:26:15;101829.64;;;12.88;69.75
40570;BME280;26270;34.428;-119.710;2022-12-24T08:28:43;101828.78;;;12.75;70.46
40570;BME280;26270;34.428;-119.710;2022-12-24T08:31:11;101831.64;;;12.83;70.26
40570;BME280;26270;34.428;-119.710;2022-12-24T08:33:40;101826.21;;;12.77;69.83
40570;BME280;26270;34.428;-119.710;2022-12-24T08:36:08;101823.52;;;12.83;70.06
40570;BME280;26270;34.428;-119.710;2022-12-24T08:38:37;101820.40;;;12.77;69.32
40570;BME280;26270;34.428;-119.710;2022-12-24T08:41:05;101823.04;;;12.80;69.29
40570;BME280;26270;34.428;-119.710;2022-12-24T08:43:33;101821.92;;;12.69;69.76
40570;BME280;26270;34.428;-119.710;2022-12-24T08:46:03;101819.00;;;12.72;68.93
40570;BME280;26270;34.428;-119.710;2022-12-24T08:48:33;101826.06;;;12.77;68.88
40570;BME280;26270;34.428;-119.710;2022-12-24T08:51:06;101824.58;;;12.58;69.05
40570;BME280;26270;34.428;-119.710;2022-12-24T08:53:35;101827.36;;;12.59;69.19
40570;BME280;26270;34.428;-119.710;2022-12-24T08:56:06;101835.37;;;12.37;69.60
40570;BME280;26270;34.428;-119.710;2022-12-24T08:58:34;101833.78;;;12.32;69.22
40570;BME280;26270;34.428;-119.710;2022-12-24T09:01:10;101828.92;;;12.52;69.01
40570;BME280;26270;34.428;-119.710;2022-12-24T09:03:38;101835.41;;;12.68;69.14
40570;BME280;26270;34.428;-119.710;2022-12-24T09:06:07;101834.58;;;12.48;69.18
40570;BME280;26270;34.428;-119.710;2022-12-24T09:08:36;101836.91;;;12.47;69.53
40570;BME280;26270;34.428;-119.710;2022-12-24T09:11:05;101836.28;;;12.49;69.49
40570;BME280;26270;34.428;-119.710;2022-12-24T09:13:34;101837.32;;;12.31;69.47
40570;BME280;26270;34.428;-119.710;2022-12-24T09:16:02;101842.76;;;12.36;69.67
40570;BME280;26270;34.428;-119.710;2022-12-24T09:18:31;101844.18;;;12.52;69.21
40570;BME280;26270;34.428;-119.710;2022-12-24T09:21:00;101845.23;;;12.26;69.55
40570;BME280;26270;34.428;-119.710;2022-12-24T09:23:29;101851.82;;;12.32;69.45
40570;BME280;26270;34.428;-119.710;2022-12-24T09:25:57;101852.69;;;12.29;69.06
40570;BME280;26270;34.428;-119.710;2022-12-24T09:28:25;101853.00;;;12.55;69.52
40570;BME280;26270;34.428;-119.710;2022-12-24T09:30:57;101857.39;;;12.38;69.30
40570;BME280;26270;34.428;-119.710;2022-12-24T09:33:26;101861.40;;;12.43;69.04
40570;BME280;26270;34.428;-119.710;2022-12-24T09:35:54;101856.53;;;12.38;69.54
40570;BME280;26270;34.428;-119.710;2022-12-24T09:38:23;101859.88;;;12.40;69.24
40570;BME280;26270;34.428;-119.710;2022-12-24T09:40:53;101867.14;;;12.40;69.53
40570;BME280;26270;34.428;-119.710;2022-12-24T09:43:24;101871.26;;;12.13;69.52
40570;BME280;26270;34.428;-119.710;2022-12-24T09:46:04;101873.23;;;12.22;69.34
40570;BME280;26270;34.428;-119.710;2022-12-24T09:48:35;101878.48;;;12.00;69.36
40570;BME280;26270;34.428;-119.710;2022-12-24T09:51:08;101886.04;;;12.14;68.72
40570;BME280;26270;34.428;-119.710;2022-12-24T09:53:40;101890.24;;;12.24;69.41
40570;BME280;26270;34.428;-119.710;2022-12-24T09:56:13;101889.37;;;11.93;69.48
40570;BME280;26270;34.428;-119.710;2022-12-24T09:58:46;101892.30;;;11.92;69.57
40570;BME280;26270;34.428;-119.710;2022-12-24T10:01:16;101891.33;;;12.04;68.69
40570;BME280;26270;34.428;-119.710;2022-12-24T10:03:45;101897.14;;;12.05;68.89
40570;BME280;26270;34.428;-119.710;2022-12-24T10:06:16;101895.66;;;11.74;70.25
40570;BME280;26270;34.428;-119.710;2022-12-24T10:08:56;101893.60;;;11.91;69.32
40570;BME280;26270;34.428;-119.710;2022-12-24T10:11:39;101895.61;;;11.87;69.55
40570;BME280;26270;34.428;-119.710;2022-12-24T10:14:17;101898.73;;;11.88;68.97
40570;BME280;26270;34.428;-119.710;2022-12-24T10:16:55;101897.90;;;11.94;69.56
40570;BME280;26270;34.428;-119.710;2022-12-24T10:19:32;101898.24;;;11.83;69.98
40570;BME280;26270;34.428;-119.710;2022-12-24T10:22:13;101901.86;;;12.06;69.47
40570;BME280;26270;34.428;-119.710;2022-12-24T10:24:51;101901.85;;;12.15;69.45
40570;BME280;26270;34.428;-119.710;2022-12-24T10:27:24;101904.50;;;12.06;69.30
40570;BME280;26270;34.428;-119.710;2022-12-24T10:29:59;101900.69;;;12.05;69.43
40570;BME280;26270;34.428;-119.710;2022-12-24T10:32:31;101903.69;;;11.93;69.55
40570;BME280;26270;34.428;-119.710;2022-12-24T10:35:03;101909.26;;;11.83;69.69
40570;BME280;26270;34.428;-119.710;2022-12-24T10:37:34;101911.43;;;11.93;69.55
40570;BME280;26270;34.428;-119.710;2022-12-24T10:40:02;101917.00;;;11.86;69.60
40570;BME280;26270;34.428;-119.710;2022-12-24T10:42:37;101921.39;;;11.81;70.00
40570;BME280;26270;34.428;-119.710;2022-12-24T10:45:09;101923.23;;;11.81;69.92
40570;BME280;26270;34.428;-119.710;2022-12-24T10:47:42;101923.51;;;11.85;69.85
40570;BME280;26270;34.428;-119.710;2022-12-24T10:50:15;101922.28;;;11.59;69.74
40570;BME280;26270;34.428;-119.710;2022-12-24T10:52:45;101923.30;;;11.73;69.90
40570;BME280;26270;34.428;-119.710;2022-12-24T10:55:22;101923.96;;;11.84;70.21
40570;BME280;26270;34.428;-119.710;2022-12-24T10:58:00;101925.05;;;11.92;69.78
40570;BME280;26270;34.428;-119.710;2022-12-24T11:00:29;101927.74;;;11.78;69.93
40570;BME280;26270;34.428;-119.710;2022-12-24T11:03:19;101930.16;;;11.94;69.88
40570;BME280;26270;34.428;-119.710;2022-12-24T11:06:00;101928.12;;;11.94;69.37
40570;BME280;26270;34.428;-119.710;2022-12-24T11:08:28;101928.71;;;11.77;69.82
40570;BME280;26270;34.428;-119.710;2022-12-24T11:10:59;101929.86;;;11.96;69.21
40570;BME280;26270;34.428;-119.710;2022-12-24T11:13:29;101930.47;;;11.92;69.27
40570;BME280;26270;34.428;-119.710;2022-12-24T11:16:01;101930.79;;;11.89;69.13
40570;BME280;26270;34.428;-119.710;2022-12-24T11:18:32;101931.12;;;11.95;69.48
40570;BME280;26270;34.428;-119.710;2022-12-24T11:21:03;101927.82;;;11.81;69.57
40570;BME280;26270;34.428;-119.710;2022-12-24T11:23:31;101930.37;;;11.91;69.82
40570;BME280;26270;34.428;-119.710;2022-12-24T11:26:00;101935.14;;;11.95;69.81
40570;BME280;26270;34.428;-119.710;2022-12-24T11:28:30;101934.28;;;11.97;68.38
40570;BME280;26270;34.428;-119.710;2022-12-24T11:31:03;101932.08;;;11.91;68.04
40570;BME280;26270;34.428;-119.710;2022-12-24T11:33:43;101932.20;;;11.83;68.59
40570;BME280;26270;34.428;-119.710;2022-12-24T11:36:13;101933.99;;;11.66;68.51
40570;BME280;26270;34.428;-119.710;2022-12-24T11:38:41;101932.57;;;11.79;68.12
40570;BME280;26270;34.428;-119.710;2022-12-24T11:41:11;101931.43;;;11.70;68.72
40570;BME280;26270;34.428;-119.710;2022-12-24T11:43:43;101935.13;;;11.58;68.07
40570;BME280;26270;34.428;-119.710;2022-12-24T11:46:16;101930.46;;;11.33;69.19
40570;BME280;26270;34.428;-119.710;2022-12-24T11:48:46;101928.25;;;11.46;68.96
40570;BME280;26270;34.428;-119.710;2022-12-24T11:51:22;101928.54;;;11.34;68.48
40570;BME280;26270;34.428;-119.710;2022-12-24T11:53:59;101925.44;;;11.28;68.79
40570;BME280;26270;34.428;-119.710;2022-12-24T11:56:35;101925.32;;;11.59;68.62
40570;BME280;26270;34.428;-119.710;2022-12-24T11:59:12;101924.45;;;11.72;68.45
40570;BME280;26270;34.428;-119.710;2022-12-24T12:01:49;101925.72;;;11.62;68.44
40570;BME280;26270;34.428;-119.710;2022-12-24T12:04:23;101925.27;;;11.38;69.51
40570;BME280;26270;34.428;-119.710;2022-12-24T12:06:54;101924.23;;;11.63;69.91
40570;BME280;26270;34.428;-119.710;2022-12-24T12:09:27;101921.36;;;11.84;69.22
40570;BME280;26270;34.428;-119.710;2022-12-24T12:11:59;101927.12;;;11.93;68.97
40570;BME280;26270;34.428;-119.710;2022-12-24T12:14:32;101923.55;;;11.68;69.39
40570;BME280;26270;34.428;-119.710;2022-12-24T12:17:10;101927.17;;;11.94;69.78
40570;BME280;26270;34.428;-119.710;2022-12-24T12:19:43;101932.13;;;11.87;69.64
40570;BME280;26270;34.428;-119.710;2022-12-24T12:22:22;101936.46;;;11.75;69.74
40570;BME280;26270;34.428;-119.710;2022-12-24T12:24:55;101934.54;;;11.90;69.34
40570;BME280;26270;34.428;-119.710;2022-12-24T12:27:29;101933.22;;;11.86;69.35
40570;BME280;26270;34.428;-119.710;2022-12-24T12:30:03;101933.95;;;11.81;69.23
40570;BME280;26270;34.428;-119.710;2022-12-24T12:32:40;101937.33;;;11.72;69.21
40570;BME280;26270;34.428;-119.710;2022-12-24T12:35:17;101937.36;;;11.78;69.07
40570;BME280;26270;34.428;-119.710;2022-12-24T12:37:54;101935.83;;;11.79;69.39
40570;BME280;26270;34.428;-119.710;2022-12-24T12:40:29;101939.13;;;11.62;69.53
40570;BME280;26270;34.428;-119.710;2022-12-24T12:43:07;101939.47;;;11.66;69.14